sensor_id;sensor_type;location;lat;lon;timestamp;pressure;altitude;pressure_sealevel;temperature;humidity
27210;BME280;14721;42.668;23.386;2023-12-22T00:07:02;93786.47;;;-0.13;100.00
27210;BME280;14721;42.668;23.386;2023-12-22T00:13:48;93854.19;;;0.26;100.00
27210;BME280;14721;42.668;23.386;2023-12-22T00:26:53;93843.72;;;0.83;100.00
27210;BME280;14721;42.668;23.386;2023-12-22T00:29:31;93811.84;;;0.46;100.00
27210;BME280;14721;42.668;23.386;2023-12-22T00:32:15;93818.44;;;0.53;100.00
27210;BME280;14721;42.668;23.386;2023-12-22T00:37:56;93853.22;;;1.00;100.00
27210;BME280;14721;42.668;23.386;2023-12-22T00:40:33;93833.41;;;0.80;100.00
27210;BME280;14721;42.668;23.386;2023-12-22T00:43:23;93764.41;;;0.63;100.00
27210;BME280;14721;42.668;23.386;2023-12-22T00:46:20;93805.59;;;0.90;100.00
27210;BME280;14721;42.668;23.386;2023-12-22T00:58:49;93797.75;;;1.45;99.17
27210;BME280;14721;42.668;23.386;2023-12-22T01:01:39;93796.16;;;1.42;98.77
27210;BME280;14721;42.668;23.386;2023-12-22T01:04:27;93745.78;;;1.48;97.94
27210;BME280;14721;42.668;23.386;2023-12-22T01:07:13;93746.66;;;1.35;97.38
27210;BME280;14721;42.668;23.386;2023-12-22T01:12:49;93778.00;;;1.52;97.21
27210;BME280;14721;42.668;23.386;2023-12-22T01:15:39;93812.53;;;1.74;97.34
27210;BME280;14721;42.668;23.386;2023-12-22T01:18:29;93738.91;;;1.19;96.84
27210;BME280;14721;42.668;23.386;2023-12-22T01:21:38;93762.59;;;1.46;97.13
27210;BME280;14721;42.668;23.386;2023-12-22T01:40:08;93750.88;;;1.37;97.82
27210;BME280;14721;42.668;23.386;2023-12-22T01:42:43;93762.41;;;1.49;97.87
27210;BME280;14721;42.668;23.386;2023-12-22T01:45:19;93767.41;;;1.39;97.82
27210;BME280;14721;42.668;23.386;2023-12-22T01:47:53;93780.22;;;1.58;98.66
27210;BME280;14721;42.668;23.386;2023-12-22T01:50:31;93683.59;;;1.07;98.33
27210;BME280;14721;42.668;23.386;2023-12-22T01:56:18;93760.72;;;1.74;98.58
27210;BME280;14721;42.668;23.386;2023-12-22T01:59:07;93683.06;;;1.28;98.55
27210;BME280;14721;42.668;23.386;2023-12-22T02:02:05;93706.66;;;1.30;98.46
27210;BME280;14721;42.668;23.386;2023-12-22T02:04:41;93645.19;;;1.04;98.66
27210;BME280;14721;42.668;23.386;2023-12-22T02:14:00;93788.78;;;1.61;98.65
27210;BME280;14721;42.668;23.386;2023-12-22T02:23:39;93705.56;;;1.20;98.50
27210;BME280;14721;42.668;23.386;2023-12-22T02:26:53;93760.44;;;1.38;98.98
27210;BME280;14721;42.668;23.386;2023-12-22T02:32:57;93686.97;;;0.54;100.00
27210;BME280;14721;42.668;23.386;2023-12-22T02:36:02;93745.78;;;0.94;100.00
27210;BME280;14721;42.668;23.386;2023-12-22T02:45:16;93714.63;;;1.02;100.00
27210;BME280;14721;42.668;23.386;2023-12-22T02:48:24;93691.16;;;0.99;100.00
27210;BME280;14721;42.668;23.386;2023-12-22T02:51:04;93745.41;;;1.40;100.00
27210;BME280;14721;42.668;23.386;2023-12-22T02:53:45;93641.19;;;0.58;100.00
27210;BME280;14721;42.668;23.386;2023-12-22T02:59:37;93731.69;;;1.09;100.00
27210;BME280;14721;42.668;23.386;2023-12-22T03:02:18;93700.69;;;1.14;100.00
27210;BME280;14721;42.668;23.386;2023-12-22T03:05:13;93646.47;;;0.85;100.00
27210;BME280;14721;42.668;23.386;2023-12-22T03:07:50;93697.31;;;1.38;100.00
27210;BME280;14721;42.668;23.386;2023-12-22T03:10:15;93730.94;;;1.74;100.00
27210;BME280;14721;42.668;23.386;2023-12-22T03:12:44;93617.94;;;1.05;99.98
27210;BME280;14721;42.668;23.386;2023-12-22T03:15:51;93623.56;;;1.13;99.02
27210;BME280;14721;42.668;23.386;2023-12-22T03:18:26;93726.25;;;1.65;98.79
27210;BME280;14721;42.668;23.386;2023-12-22T03:20:54;93706.72;;;1.55;98.87
27210;BME280;14721;42.668;23.386;2023-12-22T03:23:20;93728.53;;;1.57;98.71
27210;BME280;14721;42.668;23.386;2023-12-22T03:25:49;93717.63;;;1.36;98.23
27210;BME280;14721;42.668;23.386;2023-12-22T03:28:26;93730.31;;;1.30;98.85
27210;BME280;14721;42.668;23.386;2023-12-22T03:31:07;93704.78;;;1.18;99.12
27210;BME280;14721;42.668;23.386;2023-12-22T03:33:44;93629.53;;;0.89;99.45
27210;BME280;14721;42.668;23.386;2023-12-22T03:36:47;93672.09;;;1.22;99.19
27210;BME280;14721;42.668;23.386;2023-12-22T03:39:15;93716.69;;;1.37;99.08
27210;BME280;14721;42.668;23.386;2023-12-22T03:42:04;93709.69;;;1.10;99.11
27210;BME280;14721;42.668;23.386;2023-12-22T03:44:48;93639.84;;;0.65;99.73
27210;BME280;14721;42.668;23.386;2023-12-22T03:47:25;93664.25;;;1.08;100.00
27210;BME280;14721;42.668;23.386;2023-12-22T03:53:09;93627.13;;;0.86;100.00
27210;BME280;14721;42.668;23.386;2023-12-22T03:55:59;93637.41;;;1.03;100.00
27210;BME280;14721;42.668;23.386;2023-12-22T03:59:07;93638.25;;;1.30;100.00
27210;BME280;14721;42.668;23.386;2023-12-22T04:05:39;93672.16;;;1.73;99.20
27210;BME280;14721;42.668;23.386;2023-12-22T04:08:08;93642.41;;;1.46;99.30
27210;BME280;14721;42.668;23.386;2023-12-22T04:10:37;93657.78;;;1.52;99.56
27210;BME280;14721;42.668;23.386;2023-12-22T04:13:07;93715.91;;;1.88;100.00
27210;BME280;14721;42.668;23.386;2023-12-22T04:16:05;93638.59;;;1.38;100.00
27210;BME280;14721;42.668;23.386;2023-12-22T04:19:02;93621.41;;;1.32;100.00
27210;BME280;14721;42.668;23.386;2023-12-22T04:21:43;93709.56;;;1.91;100.00
27210;BME280;14721;42.668;23.386;2023-12-22T04:27:19;93720.03;;;2.05;100.00
27210;BME280;14721;42.668;23.386;2023-12-22T04:33:03;93657.13;;;1.88;100.00
27210;BME280;14721;42.668;23.386;2023-12-22T04:36:00;93685.56;;;1.83;100.00
27210;BME280;14721;42.668;23.386;2023-12-22T04:47:59;93686.72;;;1.91;100.00
27210;BME280;14721;42.668;23.386;2023-12-22T04:50:35;93648.22;;;1.51;100.00
27210;BME280;14721;42.668;23.386;2023-12-22T04:53:06;93678.38;;;1.85;100.00
27210;BME280;14721;42.668;23.386;2023-12-22T04:55:44;93620.44;;;1.60;100.00
27210;BME280;14721;42.668;23.386;2023-12-22T04:58:12;93689.06;;;1.96;100.00
27210;BME280;14721;42.668;23.386;2023-12-22T05:01:00;93683.72;;;2.10;100.00
27210;BME280;14721;42.668;23.386;2023-12-22T05:03:41;93637.22;;;1.84;100.00
27210;BME280;14721;42.668;23.386;2023-12-22T05:06:50;93653.03;;;1.97;100.00
27210;BME280;14721;42.668;23.386;2023-12-22T05:09:17;93663.47;;;2.11;100.00
27210;BME280;14721;42.668;23.386;2023-12-22T05:11:55;93636.28;;;1.98;100.00
27210;BME280;14721;42.668;23.386;2023-12-22T05:14:46;93632.59;;;1.87;100.00
27210;BME280;14721;42.668;23.386;2023-12-22T05:17:22;93592.34;;;1.85;100.00
27210;BME280;14721;42.668;23.386;2023-12-22T05:19:58;93677.09;;;2.30;100.00
27210;BME280;14721;42.668;23.386;2023-12-22T05:26:19;93650.47;;;1.82;100.00
27210;BME280;14721;42.668;23.386;2023-12-22T05:29:04;93692.84;;;2.05;100.00
27210;BME280;14721;42.668;23.386;2023-12-22T05:32:20;93618.25;;;1.79;100.00
27210;BME280;14721;42.668;23.386;2023-12-22T05:39:01;93653.03;;;2.22;100.00
27210;BME280;14721;42.668;23.386;2023-12-22T05:45:18;93612.16;;;2.04;100.00
27210;BME280;14721;42.668;23.386;2023-12-22T05:50:52;93584.25;;;2.01;100.00
27210;BME280;14721;42.668;23.386;2023-12-22T05:53:59;93615.63;;;2.17;100.00
27210;BME280;14721;42.668;23.386;2023-12-22T05:56:24;93654.53;;;2.13;100.00
27210;BME280;14721;42.668;23.386;2023-12-22T05:58:50;93606.69;;;2.07;100.00
27210;BME280;14721;42.668;23.386;2023-12-22T06:01:17;93684.66;;;2.47;100.00
27210;BME280;14721;42.668;23.386;2023-12-22T06:03:47;93661.66;;;2.61;100.00
27210;BME280;14721;42.668;23.386;2023-12-22T06:06:12;93675.16;;;2.69;100.00
27210;BME280;14721;42.668;23.386;2023-12-22T06:08:38;93666.22;;;2.59;100.00
27210;BME280;14721;42.668;23.386;2023-12-22T06:11:06;93576.63;;;2.22;100.00
27210;BME280;14721;42.668;23.386;2023-12-22T06:13:41;93670.41;;;2.62;100.00
27210;BME280;14721;42.668;23.386;2023-12-22T06:16:11;93682.53;;;2.64;100.00
27210;BME280;14721;42.668;23.386;2023-12-22T06:18:39;93660.41;;;2.67;100.00
27210;BME280;14721;42.668;23.386;2023-12-22T06:21:04;93681.66;;;2.76;100.00
27210;BME280;14721;42.668;23.386;2023-12-22T06:23:30;93675.91;;;2.59;100.00
27210;BME280;14721;42.668;23.386;2023-12-22T06:26:17;93622.19;;;2.24;100.00
27210;BME280;14721;42.668;23.386;2023-12-22T06:29:24;93596.78;;;1.98;100.00
27210;BME280;14721;42.668;23.386;2023-12-22T06:31:59;93688.25;;;2.46;100.00
27210;BME280;14721;42.668;23.386;2023-12-22T06:35:11;93654.09;;;2.57;100.00
27210;BME280;14721;42.668;23.386;2023-12-22T06:37:53;93689.69;;;2.87;100.00
27210;BME280;14721;42.668;23.386;2023-12-22T06:40:26;93703.47;;;3.03;100.00
27210;BME280;14721;42.668;23.386;2023-12-22T06:43:15;93701.66;;;3.16;100.00
27210;BME280;14721;42.668;23.386;2023-12-22T06:45:57;93628.50;;;2.82;100.00
27210;BME280;14721;42.668;23.386;2023-12-22T06:48:46;93678.16;;;3.01;100.00
27210;BME280;14721;42.668;23.386;2023-12-22T06:51:26;93663.94;;;2.91;100.00
27210;BME280;14721;42.668;23.386;2023-12-22T06:53:53;93685.44;;;3.33;100.00
27210;BME280;14721;42.668;23.386;2023-12-22T06:56:39;93686.41;;;3.32;100.00
27210;BME280;14721;42.668;23.386;2023-12-22T06:59:06;93687.16;;;3.22;100.00
27210;BME280;14721;42.668;23.386;2023-12-22T07:01:35;93687.09;;;3.11;100.00
27210;BME280;14721;42.668;23.386;2023-12-22T07:04:02;93682.66;;;3.11;100.00
27210;BME280;14721;42.668;23.386;2023-12-22T07:06:29;93672.03;;;3.00;100.00
27210;BME280;14721;42.668;23.386;2023-12-22T07:11:51;93690.09;;;3.30;100.00
27210;BME280;14721;42.668;23.386;2023-12-22T07:14:18;93689.47;;;3.26;100.00
27210;BME280;14721;42.668;23.386;2023-12-22T07:16:44;93713.38;;;3.48;100.00
27210;BME280;14721;42.668;23.386;2023-12-22T07:19:10;93631.31;;;2.92;100.00
27210;BME280;14721;42.668;23.386;2023-12-22T07:21:42;93699.19;;;3.26;100.00
27210;BME280;14721;42.668;23.386;2023-12-22T07:24:07;93655.75;;;3.06;100.00
27210;BME280;14721;42.668;23.386;2023-12-22T07:26:33;93697.59;;;3.36;100.00
27210;BME280;14721;42.668;23.386;2023-12-22T07:28:58;93682.34;;;3.39;100.00
27210;BME280;14721;42.668;23.386;2023-12-22T07:31:24;93669.16;;;3.39;100.00
27210;BME280;14721;42.668;23.386;2023-12-22T07:33:50;93697.75;;;3.45;100.00
27210;BME280;14721;42.668;23.386;2023-12-22T07:36:19;93702.13;;;3.57;100.00
27210;BME280;14721;42.668;23.386;2023-12-22T07:38:46;93682.75;;;3.22;100.00
27210;BME280;14721;42.668;23.386;2023-12-22T07:41:13;93710.06;;;3.57;100.00
27210;BME280;14721;42.668;23.386;2023-12-22T07:43:38;93714.06;;;3.86;100.00
27210;BME280;14721;42.668;23.386;2023-12-22T07:46:04;93691.09;;;3.52;100.00
27210;BME280;14721;42.668;23.386;2023-12-22T07:48:30;93691.13;;;3.40;100.00
27210;BME280;14721;42.668;23.386;2023-12-22T07:50:55;93695.00;;;3.47;100.00
27210;BME280;14721;42.668;23.386;2023-12-22T07:53:21;93716.47;;;3.66;100.00
27210;BME280;14721;42.668;23.386;2023-12-22T07:55:55;93694.16;;;3.46;100.00
27210;BME280;14721;42.668;23.386;2023-12-22T08:04:52;93664.22;;;3.35;100.00
27210;BME280;14721;42.668;23.386;2023-12-22T08:07:20;93718.34;;;3.76;100.00
27210;BME280;14721;42.668;23.386;2023-12-22T08:09:49;93663.50;;;3.56;100.00
27210;BME280;14721;42.668;23.386;2023-12-22T08:12:26;93773.75;;;4.13;100.00
27210;BME280;14721;42.668;23.386;2023-12-22T08:15:08;93752.75;;;4.22;100.00
27210;BME280;14721;42.668;23.386;2023-12-22T08:18:15;93763.06;;;4.14;100.00
27210;BME280;14721;42.668;23.386;2023-12-22T08:21:18;93741.19;;;4.12;100.00
27210;BME280;14721;42.668;23.386;2023-12-22T08:24:04;93762.16;;;4.26;100.00
27210;BME280;14721;42.668;23.386;2023-12-22T08:26:52;93773.59;;;4.38;100.00
27210;BME280;14721;42.668;23.386;2023-12-22T08:29:28;93777.97;;;4.50;100.00
27210;BME280;14721;42.668;23.386;2023-12-22T08:31:56;93718.91;;;4.27;100.00
27210;BME280;14721;42.668;23.386;2023-12-22T08:34:23;93784.00;;;4.63;100.00
27210;BME280;14721;42.668;23.386;2023-12-22T08:36:49;93738.25;;;4.28;100.00
27210;BME280;14721;42.668;23.386;2023-12-22T08:39:25;93717.88;;;4.06;100.00
27210;BME280;14721;42.668;23.386;2023-12-22T08:41:51;93776.75;;;4.43;100.00
27210;BME280;14721;42.668;23.386;2023-12-22T08:44:17;93725.97;;;4.16;100.00
27210;BME280;14721;42.668;23.386;2023-12-22T08:46:43;93738.25;;;4.28;100.00
27210;BME280;14721;42.668;23.386;2023-12-22T08:49:09;93763.19;;;4.47;100.00
27210;BME280;14721;42.668;23.386;2023-12-22T08:51:36;93732.50;;;4.34;100.00
27210;BME280;14721;42.668;23.386;2023-12-22T08:54:02;93762.09;;;4.50;100.00
27210;BME280;14721;42.668;23.386;2023-12-22T08:56:29;93764.72;;;4.39;100.00
27210;BME280;14721;42.668;23.386;2023-12-22T08:58:55;93744.53;;;4.38;100.00
27210;BME280;14721;42.668;23.386;2023-12-22T09:01:23;93734.63;;;4.29;100.00
27210;BME280;14721;42.668;23.386;2023-12-22T09:03:50;93760.19;;;4.52;100.00
27210;BME280;14721;42.668;23.386;2023-12-22T09:06:19;93760.91;;;4.54;100.00
27210;BME280;14721;42.668;23.386;2023-12-22T09:08:47;93794.47;;;4.53;100.00
27210;BME280;14721;42.668;23.386;2023-12-22T09:11:17;93766.41;;;4.40;100.00
27210;BME280;14721;42.668;23.386;2023-12-22T09:13:43;93778.47;;;4.55;100.00
27210;BME280;14721;42.668;23.386;2023-12-22T09:16:09;93778.38;;;4.56;100.00
27210;BME280;14721;42.668;23.386;2023-12-22T09:18:35;93795.38;;;4.41;100.00
27210;BME280;14721;42.668;23.386;2023-12-22T09:21:01;93777.34;;;4.35;100.00
27210;BME280;14721;42.668;23.386;2023-12-22T09:23:28;93785.50;;;4.43;100.00
27210;BME280;14721;42.668;23.386;2023-12-22T09:25:53;93777.00;;;4.40;100.00
27210;BME280;14721;42.668;23.386;2023-12-22T09:28:24;93788.03;;;4.45;100.00
27210;BME280;14721;42.668;23.386;2023-12-22T09:30:51;93767.97;;;4.42;100.00
27210;BME280;14721;42.668;23.386;2023-12-22T09:33:17;93759.41;;;4.39;100.00
27210;BME280;14721;42.668;23.386;2023-12-22T09:35:55;93747.91;;;4.40;100.00
27210;BME280;14721;42.668;23.386;2023-12-22T09:38:20;93767.66;;;4.58;100.00
27210;BME280;14721;42.668;23.386;2023-12-22T09:40:51;93716.06;;;4.41;100.00
27210;BME280;14721;42.668;23.386;2023-12-22T09:43:24;93730.78;;;4.78;100.00
27210;BME280;14721;42.668;23.386;2023-12-22T09:45:58;93701.56;;;4.80;100.00
27210;BME280;14721;42.668;23.386;2023-12-22T09:48:31;93699.53;;;4.94;100.00
27210;BME280;14721;42.668;23.386;2023-12-22T09:51:01;93694.72;;;4.88;100.00
27210;BME280;14721;42.668;23.386;2023-12-22T09:53:37;93749.34;;;5.22;100.00
27210;BME280;14721;42.668;23.386;2023-12-22T09:56:08;93719.41;;;5.00;100.00
27210;BME280;14721;42.668;23.386;2023-12-22T09:58:36;93690.50;;;4.64;100.00
27210;BME280;14721;42.668;23.386;2023-12-22T10:01:16;93691.00;;;4.80;100.00
27210;BME280;14721;42.668;23.386;2023-12-22T10:04:08;93757.41;;;5.21;100.00
27210;BME280;14721;42.668;23.386;2023-12-22T10:09:09;93742.97;;;5.03;100.00
27210;BME280;14721;42.668;23.386;2023-12-22T10:11:40;93721.41;;;4.74;100.00
27210;BME280;14721;42.668;23.386;2023-12-22T10:14:11;93731.31;;;5.05;100.00
27210;BME280;14721;42.668;23.386;2023-12-22T10:16:42;93660.09;;;4.80;100.00
27210;BME280;14721;42.668;23.386;2023-12-22T10:19:09;93750.41;;;5.42;100.00
27210;BME280;14721;42.668;23.386;2023-12-22T10:21:35;93736.34;;;5.41;100.00
27210;BME280;14721;42.668;23.386;2023-12-22T10:24:03;93702.78;;;5.20;100.00
27210;BME280;14721;42.668;23.386;2023-12-22T10:26:29;93658.41;;;4.90;100.00
27210;BME280;14721;42.668;23.386;2023-12-22T10:29:09;93735.25;;;5.55;100.00
27210;BME280;14721;42.668;23.386;2023-12-22T10:31:42;93631.53;;;5.17;100.00
27210;BME280;14721;42.668;23.386;2023-12-22T10:34:07;93689.22;;;5.67;100.00
27210;BME280;14721;42.668;23.386;2023-12-22T10:36:33;93687.03;;;5.83;100.00
27210;BME280;14721;42.668;23.386;2023-12-22T10:39:01;93659.22;;;5.77;100.00
27210;BME280;14721;42.668;23.386;2023-12-22T10:41:34;93661.28;;;6.06;100.00
27210;BME280;14721;42.668;23.386;2023-12-22T10:44:03;93661.25;;;6.17;100.00
27210;BME280;14721;42.668;23.386;2023-12-22T10:46:35;93656.63;;;6.19;100.00
27210;BME280;14721;42.668;23.386;2023-12-22T10:49:10;93613.97;;;6.01;100.00
27210;BME280;14721;42.668;23.386;2023-12-22T10:51:59;93625.63;;;6.30;100.00
27210;BME280;14721;42.668;23.386;2023-12-22T10:54:25;93584.19;;;6.39;100.00
27210;BME280;14721;42.668;23.386;2023-12-22T10:56:58;93646.47;;;6.85;100.00
27210;BME280;14721;42.668;23.386;2023-12-22T10:59:28;93593.84;;;6.40;100.00
27210;BME280;14721;42.668;23.386;2023-12-22T11:01:59;93672.22;;;6.94;100.00
27210;BME280;14721;42.668;23.386;2023-12-22T11:04:30;93609.25;;;6.76;100.00
27210;BME280;14721;42.668;23.386;2023-12-22T11:07:03;93630.06;;;7.01;100.00
27210;BME280;14721;42.668;23.386;2023-12-22T11:09:34;93647.16;;;7.17;100.00
27210;BME280;14721;42.668;23.386;2023-12-22T11:12:00;93604.50;;;7.09;100.00
27210;BME280;14721;42.668;23.386;2023-12-22T11:14:29;93651.63;;;7.56;100.00
27210;BME280;14721;42.668;23.386;2023-12-22T11:16:57;93640.84;;;7.67;100.00
27210;BME280;14721;42.668;23.386;2023-12-22T11:19:26;93619.75;;;7.85;100.00
27210;BME280;14721;42.668;23.386;2023-12-22T11:21:59;93540.44;;;7.52;100.00
27210;BME280;14721;42.668;23.386;2023-12-22T11:24:33;93577.06;;;7.96;100.00
27210;BME280;14721;42.668;23.386;2023-12-22T11:27:02;93568.53;;;7.93;100.00
27210;BME280;14721;42.668;23.386;2023-12-22T11:29:30;93621.59;;;8.42;99.83
27210;BME280;14721;42.668;23.386;2023-12-22T11:31:58;93546.28;;;7.84;98.07
27210;BME280;14721;42.668;23.386;2023-12-22T11:34:28;93551.59;;;7.74;98.43
27210;BME280;14721;42.668;23.386;2023-12-22T11:36:55;93604.78;;;7.84;98.80
27210;BME280;14721;42.668;23.386;2023-12-22T11:39:22;93613.88;;;7.91;98.10
27210;BME280;14721;42.668;23.386;2023-12-22T11:41:49;93558.88;;;7.63;97.52
27210;BME280;14721;42.668;23.386;2023-12-22T11:44:22;93653.78;;;8.10;97.34
27210;BME280;14721;42.668;23.386;2023-12-22T11:47:03;93601.56;;;7.81;97.89
27210;BME280;14721;42.668;23.386;2023-12-22T11:49:32;93619.47;;;7.88;98.04
27210;BME280;14721;42.668;23.386;2023-12-22T11:52:08;93639.06;;;8.06;97.98
27210;BME280;14721;42.668;23.386;2023-12-22T11:54:56;93629.00;;;8.10;97.38
27210;BME280;14721;42.668;23.386;2023-12-22T12:02:37;93568.25;;;7.96;93.46
27210;BME280;14721;42.668;23.386;2023-12-22T12:05:12;93650.03;;;8.41;90.34
27210;BME280;14721;42.668;23.386;2023-12-22T12:07:53;93567.97;;;7.99;88.80
27210;BME280;14721;42.668;23.386;2023-12-22T12:10:50;93641.91;;;8.43;87.42
27210;BME280;14721;42.668;23.386;2023-12-22T12:13:59;93580.28;;;7.81;85.97
27210;BME280;14721;42.668;23.386;2023-12-22T12:16:43;93621.84;;;7.91;87.01
27210;BME280;14721;42.668;23.386;2023-12-22T12:19:40;93585.88;;;7.87;86.64
27210;BME280;14721;42.668;23.386;2023-12-22T12:22:17;93588.69;;;7.95;85.50
27210;BME280;14721;42.668;23.386;2023-12-22T12:25:06;93583.63;;;8.02;83.24
27210;BME280;14721;42.668;23.386;2023-12-22T12:27:34;93659.72;;;8.33;83.01
27210;BME280;14721;42.668;23.386;2023-12-22T12:30:12;93558.91;;;7.72;83.43
27210;BME280;14721;42.668;23.386;2023-12-22T12:32:41;93608.72;;;8.09;82.59
27210;BME280;14721;42.668;23.386;2023-12-22T12:35:08;93557.34;;;7.80;82.19
27210;BME280;14721;42.668;23.386;2023-12-22T12:37:37;93583.09;;;7.98;82.08
27210;BME280;14721;42.668;23.386;2023-12-22T12:40:11;93625.69;;;8.27;81.02
27210;BME280;14721;42.668;23.386;2023-12-22T12:42:40;93542.81;;;7.74;80.23
27210;BME280;14721;42.668;23.386;2023-12-22T12:45:12;93531.88;;;7.67;80.66
27210;BME280;14721;42.668;23.386;2023-12-22T12:47:38;93535.25;;;7.60;80.51
27210;BME280;14721;42.668;23.386;2023-12-22T12:53:05;93544.22;;;7.68;80.24
27210;BME280;14721;42.668;23.386;2023-12-22T12:55:33;93613.91;;;8.10;79.79
27210;BME280;14721;42.668;23.386;2023-12-22T12:57:59;93600.72;;;7.99;79.55
27210;BME280;14721;42.668;23.386;2023-12-22T13:00:26;93598.91;;;8.00;79.60
27210;BME280;14721;42.668;23.386;2023-12-22T13:02:55;93634.31;;;8.00;80.74
27210;BME280;14721;42.668;23.386;2023-12-22T13:05:22;93647.31;;;8.03;79.60
27210;BME280;14721;42.668;23.386;2023-12-22T13:07:48;93661.06;;;8.08;79.31
27210;BME280;14721;42.668;23.386;2023-12-22T13:10:24;93633.91;;;7.95;79.59
27210;BME280;14721;42.668;23.386;2023-12-22T13:12:52;93653.22;;;8.16;78.93
27210;BME280;14721;42.668;23.386;2023-12-22T13:15:21;93628.84;;;8.02;79.04
27210;BME280;14721;42.668;23.386;2023-12-22T13:17:47;93610.81;;;7.86;78.78
27210;BME280;14721;42.668;23.386;2023-12-22T13:20:16;93597.50;;;7.77;78.19
27210;BME280;14721;42.668;23.386;2023-12-22T13:22:43;93632.06;;;7.77;78.45
27210;BME280;14721;42.668;23.386;2023-12-22T13:25:11;93651.09;;;7.82;78.78
27210;BME280;14721;42.668;23.386;2023-12-22T13:27:49;93689.06;;;8.03;78.50
27210;BME280;14721;42.668;23.386;2023-12-22T13:30:37;93684.69;;;8.02;76.39
27210;BME280;14721;42.668;23.386;2023-12-22T13:33:06;93697.88;;;7.94;75.29
27210;BME280;14721;42.668;23.386;2023-12-22T13:35:44;93720.13;;;8.02;74.96
27210;BME280;14721;42.668;23.386;2023-12-22T13:38:21;93670.47;;;7.44;75.16
27210;BME280;14721;42.668;23.386;2023-12-22T13:41:00;93669.19;;;7.38;75.45
27210;BME280;14721;42.668;23.386;2023-12-22T13:43:34;93734.75;;;7.78;75.81
27210;BME280;14721;42.668;23.386;2023-12-22T13:46:23;93752.53;;;7.77;76.65
27210;BME280;14721;42.668;23.386;2023-12-22T13:49:05;93744.44;;;7.79;76.77
27210;BME280;14721;42.668;23.386;2023-12-22T13:52:00;93738.41;;;7.77;76.04
27210;BME280;14721;42.668;23.386;2023-12-22T13:54:42;93759.66;;;7.77;77.05
27210;BME280;14721;42.668;23.386;2023-12-22T13:57:31;93705.31;;;7.50;76.70
27210;BME280;14721;42.668;23.386;2023-12-22T14:00:30;93673.78;;;7.36;76.79
27210;BME280;14721;42.668;23.386;2023-12-22T14:03:06;93680.78;;;7.37;75.17
27210;BME280;14721;42.668;23.386;2023-12-22T14:05:44;93749.44;;;7.72;75.52
27210;BME280;14721;42.668;23.386;2023-12-22T14:08:13;93757.28;;;7.73;74.39
27210;BME280;14721;42.668;23.386;2023-12-22T14:29:15;93743.56;;;7.78;73.00
27210;BME280;14721;42.668;23.386;2023-12-22T14:31:51;93738.25;;;7.68;72.79
27210;BME280;14721;42.668;23.386;2023-12-22T14:34:38;93704.34;;;7.51;73.25
27210;BME280;14721;42.668;23.386;2023-12-22T14:37:06;93683.56;;;7.36;73.18
27210;BME280;14721;42.668;23.386;2023-12-22T14:39:43;93693.53;;;7.43;73.27
27210;BME280;14721;42.668;23.386;2023-12-22T14:42:45;93718.28;;;7.44;73.04
27210;BME280;14721;42.668;23.386;2023-12-22T14:45:34;93730.78;;;7.53;72.24
27210;BME280;14721;42.668;23.386;2023-12-22T14:48:00;93730.38;;;7.57;72.00
27210;BME280;14721;42.668;23.386;2023-12-22T14:50:26;93764.25;;;7.65;71.59
27210;BME280;14721;42.668;23.386;2023-12-22T14:53:00;93776.00;;;7.62;71.36
27210;BME280;14721;42.668;23.386;2023-12-22T14:55:38;93795.41;;;7.63;71.15
27210;BME280;14721;42.668;23.386;2023-12-22T14:58:47;93785.84;;;7.51;71.14
27210;BME280;14721;42.668;23.386;2023-12-22T15:01:28;93756.09;;;7.27;70.71
27210;BME280;14721;42.668;23.386;2023-12-22T15:04:15;93776.28;;;7.39;71.06
27210;BME280;14721;42.668;23.386;2023-12-22T15:14:57;93821.59;;;7.37;70.35
27210;BME280;14721;42.668;23.386;2023-12-22T15:17:53;93826.28;;;7.24;70.27
27210;BME280;14721;42.668;23.386;2023-12-22T15:20:58;93829.56;;;7.37;68.55
27210;BME280;14721;42.668;23.386;2023-12-22T15:23:54;93809.81;;;7.30;68.04
27210;BME280;14721;42.668;23.386;2023-12-22T15:26:43;93814.53;;;7.27;68.21
27210;BME280;14721;42.668;23.386;2023-12-22T15:29:28;93870.16;;;7.69;67.37
27210;BME280;14721;42.668;23.386;2023-12-22T15:31:56;93872.34;;;7.55;67.18
27210;BME280;14721;42.668;23.386;2023-12-22T15:34:47;93803.28;;;7.14;67.17
27210;BME280;14721;42.668;23.386;2023-12-22T15:37:29;93849.41;;;7.33;67.35
27210;BME280;14721;42.668;23.386;2023-12-22T15:39:57;93897.66;;;7.59;66.89
27210;BME280;14721;42.668;23.386;2023-12-22T15:42:33;93911.88;;;7.48;67.88
27210;BME280;14721;42.668;23.386;2023-12-22T15:45:23;93835.91;;;7.05;68.00
27210;BME280;14721;42.668;23.386;2023-12-22T15:47:51;93859.13;;;7.23;68.14
27210;BME280;14721;42.668;23.386;2023-12-22T15:50:29;93908.63;;;7.45;68.40
27210;BME280;14721;42.668;23.386;2023-12-22T15:52:54;93914.53;;;7.48;68.24
27210;BME280;14721;42.668;23.386;2023-12-22T15:55:20;93924.31;;;7.48;68.83
27210;BME280;14721;42.668;23.386;2023-12-22T15:57:53;93885.72;;;7.12;68.66
27210;BME280;14721;42.668;23.386;2023-12-22T16:00:22;93931.25;;;7.39;68.86
27210;BME280;14721;42.668;23.386;2023-12-22T16:02:50;93963.66;;;7.54;69.23
27210;BME280;14721;42.668;23.386;2023-12-22T16:05:21;93901.94;;;7.30;68.77
27210;BME280;14721;42.668;23.386;2023-12-22T16:07:57;93897.72;;;7.27;68.74
27210;BME280;14721;42.668;23.386;2023-12-22T16:10:34;93904.03;;;7.26;69.35
27210;BME280;14721;42.668;23.386;2023-12-22T16:12:59;93890.38;;;6.99;70.78
27210;BME280;14721;42.668;23.386;2023-12-22T16:15:38;93945.41;;;7.29;71.02
27210;BME280;14721;42.668;23.386;2023-12-22T16:18:20;93935.13;;;7.35;69.57
27210;BME280;14721;42.668;23.386;2023-12-22T16:20:53;93913.06;;;7.24;69.00
27210;BME280;14721;42.668;23.386;2023-12-22T16:23:19;93912.25;;;7.23;67.80
27210;BME280;14721;42.668;23.386;2023-12-22T16:26:11;93944.91;;;7.55;66.54
27210;BME280;14721;42.668;23.386;2023-12-22T16:28:37;93927.28;;;7.34;66.62